Roby, Illinois
Current Conditions -  °F | °C
As of 12:52 PM on Tuesday 21 Oct 2014 (Local Time) from KSPI Reporting Station
Clear Clear  
Wind Chill: 16°   Ceiling: Unl
Heat Index: 16°   Visibility: 10mi
Dew Point:   Wind: 10mph
Humidity: 52%   Direction: 10°N
Pressure: 30.15"   Gusts: 18mph
Location:  39.766°N, 89.4108°W
Report Text: KSPI 211752Z 01009G16KT 10SM CLR 16/06 A3015 RMK AO2 SLP210 T01610061 10167 20039 58003
Loading
Personal Weather Stations






























Interactive Weather Map
Tropical Storm Tracking
New forecast layout! Learn more

10-Day Weather Forecast

Advertisements
Track Severe Weather on mobile